Aeroporto :
LOGIN :

Iscrizione | Disclaimer

   EN    FR    IT 

 










Sommario :    VFR   VFR Marginale   IFR   IFR Intensivo   IFR Molto Intensivo
Visibilità : 
Base nubi : 
>= 8 km
>= 3000ft
5 / 8 km
1000 / 3000 ft
1500m / 5 km
500 / 1000 ft
800 / 1500m
200 / 500 ft
< 800m
< 200 ft
Simboli :   Temporali  Nebbia  Neve Forte  Precipitazioni Forti  Vento > 20 kt
SIGMETs :   Varie  Temporali  Ghiacco  Turbolenza  Onda orograficha  Ceneri Vulcaniche






- Altitudine del aeroporto : 68 ft
- Codice IATA : AGH


ESTA - Ängelholm-Helsingborg

ULTIMO METAR :
  • 171520Z AUTO 14005KT 5000 BR SCT010/// OVC130/// 06/05 Q1016

METARs OBSOLETI :
  • 171450Z 15005KT 5000 BR BKN130 06/05 Q1016
  • 171420Z AUTO 12004KT 8000 BR BKN130/// 06/05 Q1016
  • 171350Z 17005KT CAVOK 07/05 Q1016
  • 171320Z 18006KT CAVOK 07/04 Q1016
  • 171250Z 18004KT CAVOK 07/04 Q1016

TAF TAF ESTA
Valido dal 17 a 15 ore il 18 a 00 ore UTC


171409Z 1715/1724 08008KT 7000 FEW010



MetMap, La meteo Aeronautica in un colpo d'occhio ! - Copyright ORBIFLY Dicembre 2007 - Disclaimer

ORBIFLY MET'MAP TEAM :

Programmazione e sviluppo : Alexandra Zaïnal
Concezione e sviluppo : Baudouin d'Aumeries
Co-Programmazione e sviluppo : Marc-Olivier Méhu
Supporto tecnico e logistico : Manuel Goepfert
Aiuto per la traduzione : Arnaldo La Scala

Contatto : metmap@orbifly.com




FONTI E CREDITI :

   NOAA